sensor_id;sensor_type;location;lat;lon;timestamp;P1;durP1;ratioP1;P2;durP2;ratioP2
55009;SDS011;40903;51.638;7.528;2022-08-01T00:00:08;14.23;;;12.60;;
55009;SDS011;40903;51.638;7.528;2022-08-01T00:02:35;16.07;;;13.67;;
55009;SDS011;40903;51.638;7.528;2022-08-01T00:05:04;14.63;;;13.23;;
55009;SDS011;40903;51.638;7.528;2022-08-01T00:07:33;13.70;;;12.50;;
55009;SDS011;40903;51.638;7.528;2022-08-01T00:09:59;18.50;;;13.83;;
55009;SDS011;40903;51.638;7.528;2022-08-01T00:12:25;16.70;;;13.87;;
55009;SDS011;40903;51.638;7.528;2022-08-01T00:14:51;16.13;;;13.93;;
55009;SDS011;40903;51.638;7.528;2022-08-01T00:17:16;16.13;;;13.50;;
55009;SDS011;40903;51.638;7.528;2022-08-01T00:19:42;15.37;;;13.73;;
55009;SDS011;40903;51.638;7.528;2022-08-01T00:22:07;15.50;;;13.90;;
55009;SDS011;40903;51.638;7.528;2022-08-01T00:24:33;13.77;;;12.20;;
55009;SDS011;40903;51.638;7.528;2022-08-01T00:26:58;16.73;;;14.30;;
55009;SDS011;40903;51.638;7.528;2022-08-01T00:29:24;14.80;;;13.37;;
55009;SDS011;40903;51.638;7.528;2022-08-01T00:31:49;15.37;;;13.83;;
55009;SDS011;40903;51.638;7.528;2022-08-01T00:34:15;13.90;;;12.60;;
55009;SDS011;40903;51.638;7.528;2022-08-01T00:36:40;14.83;;;13.13;;
55009;SDS011;40903;51.638;7.528;2022-08-01T00:39:05;14.13;;;12.60;;
55009;SDS011;40903;51.638;7.528;2022-08-01T00:41:31;15.33;;;13.53;;
55009;SDS011;40903;51.638;7.528;2022-08-01T00:43:56;15.73;;;14.00;;
55009;SDS011;40903;51.638;7.528;2022-08-01T00:46:22;18.77;;;14.10;;
55009;SDS011;40903;51.638;7.528;2022-08-01T00:48:47;16.20;;;14.70;;
55009;SDS011;40903;51.638;7.528;2022-08-01T00:51:12;14.67;;;13.17;;
55009;SDS011;40903;51.638;7.528;2022-08-01T00:53:38;15.53;;;13.93;;
55009;SDS011;40903;51.638;7.528;2022-08-01T00:56:04;14.27;;;12.87;;
55009;SDS011;40903;51.638;7.528;2022-08-01T00:58:30;15.50;;;13.90;;
55009;SDS011;40903;51.638;7.528;2022-08-01T01:00:57;17.27;;;15.60;;
55009;SDS011;40903;51.638;7.528;2022-08-01T01:03:23;17.57;;;15.60;;
55009;SDS011;40903;51.638;7.528;2022-08-01T01:05:57;16.03;;;14.40;;
55009;SDS011;40903;51.638;7.528;2022-08-01T01:08:43;16.87;;;15.13;;
55009;SDS011;40903;51.638;7.528;2022-08-01T01:11:23;14.83;;;13.33;;
55009;SDS011;40903;51.638;7.528;2022-08-01T01:13:54;17.73;;;15.87;;
55009;SDS011;40903;51.638;7.528;2022-08-01T01:16:25;16.30;;;14.57;;
55009;SDS011;40903;51.638;7.528;2022-08-01T01:18:55;15.93;;;14.17;;
55009;SDS011;40903;51.638;7.528;2022-08-01T01:21:29;17.77;;;15.87;;
55009;SDS011;40903;51.638;7.528;2022-08-01T01:24:27;18.60;;;15.37;;
55009;SDS011;40903;51.638;7.528;2022-08-01T01:27:01;16.43;;;14.77;;
55009;SDS011;40903;51.638;7.528;2022-08-01T01:29:38;18.00;;;16.10;;
55009;SDS011;40903;51.638;7.528;2022-08-01T01:32:09;17.90;;;15.73;;
55009;SDS011;40903;51.638;7.528;2022-08-01T01:34:43;18.33;;;16.50;;
55009;SDS011;40903;51.638;7.528;2022-08-01T01:37:10;19.60;;;17.53;;
55009;SDS011;40903;51.638;7.528;2022-08-01T01:39:40;17.93;;;16.00;;
55009;SDS011;40903;51.638;7.528;2022-08-01T01:42:08;17.93;;;15.97;;
55009;SDS011;40903;51.638;7.528;2022-08-01T01:44:34;18.37;;;16.60;;
55009;SDS011;40903;51.638;7.528;2022-08-01T01:47:01;21.23;;;17.57;;
55009;SDS011;40903;51.638;7.528;2022-08-01T01:49:28;18.93;;;16.97;;
55009;SDS011;40903;51.638;7.528;2022-08-01T01:51:56;19.03;;;17.03;;
55009;SDS011;40903;51.638;7.528;2022-08-01T01:54:23;18.37;;;16.43;;
55009;SDS011;40903;51.638;7.528;2022-08-01T01:56:53;19.30;;;17.30;;
55009;SDS011;40903;51.638;7.528;2022-08-01T01:59:24;19.77;;;17.57;;
55009;SDS011;40903;51.638;7.528;2022-08-01T02:01:52;18.73;;;17.00;;
55009;SDS011;40903;51.638;7.528;2022-08-01T02:04:20;19.37;;;17.30;;
55009;SDS011;40903;51.638;7.528;2022-08-01T02:06:47;20.70;;;18.50;;
55009;SDS011;40903;51.638;7.528;2022-08-01T02:09:16;19.47;;;17.50;;
55009;SDS011;40903;51.638;7.528;2022-08-01T02:11:43;18.87;;;16.97;;
55009;SDS011;40903;51.638;7.528;2022-08-01T02:14:11;21.97;;;18.47;;
55009;SDS011;40903;51.638;7.528;2022-08-01T02:16:39;20.13;;;18.17;;
55009;SDS011;40903;51.638;7.528;2022-08-01T02:19:06;20.67;;;18.57;;
55009;SDS011;40903;51.638;7.528;2022-08-01T02:21:37;18.83;;;17.03;;
55009;SDS011;40903;51.638;7.528;2022-08-01T02:24:12;18.13;;;15.90;;
55009;SDS011;40903;51.638;7.528;2022-08-01T02:26:42;15.30;;;13.57;;
55009;SDS011;40903;51.638;7.528;2022-08-01T02:29:12;15.67;;;12.97;;
55009;SDS011;40903;51.638;7.528;2022-08-01T02:31:42;12.43;;;10.93;;
55009;SDS011;40903;51.638;7.528;2022-08-01T02:34:13;13.73;;;11.23;;
55009;SDS011;40903;51.638;7.528;2022-08-01T02:36:42;12.23;;;10.90;;
55009;SDS011;40903;51.638;7.528;2022-08-01T02:39:16;12.07;;;10.77;;
55009;SDS011;40903;51.638;7.528;2022-08-01T02:41:48;13.83;;;11.00;;
55009;SDS011;40903;51.638;7.528;2022-08-01T02:44:26;11.70;;;10.50;;
55009;SDS011;40903;51.638;7.528;2022-08-01T02:46:59;10.47;;;9.43;;
55009;SDS011;40903;51.638;7.528;2022-08-01T02:49:39;13.07;;;11.77;;
55009;SDS011;40903;51.638;7.528;2022-08-01T02:52:10;10.83;;;9.73;;
55009;SDS011;40903;51.638;7.528;2022-08-01T02:54:38;12.60;;;11.07;;
55009;SDS011;40903;51.638;7.528;2022-08-01T02:57:05;11.63;;;10.40;;
55009;SDS011;40903;51.638;7.528;2022-08-01T02:59:32;10.83;;;9.73;;
55009;SDS011;40903;51.638;7.528;2022-08-01T03:02:00;10.87;;;9.77;;
55009;SDS011;40903;51.638;7.528;2022-08-01T03:04:29;11.53;;;9.97;;
55009;SDS011;40903;51.638;7.528;2022-08-01T03:06:57;11.10;;;10.00;;
55009;SDS011;40903;51.638;7.528;2022-08-01T03:09:23;11.87;;;10.33;;
55009;SDS011;40903;51.638;7.528;2022-08-01T03:11:51;11.30;;;10.10;;
55009;SDS011;40903;51.638;7.528;2022-08-01T03:14:20;12.93;;;10.70;;
55009;SDS011;40903;51.638;7.528;2022-08-01T03:16:47;12.17;;;10.83;;
55009;SDS011;40903;51.638;7.528;2022-08-01T03:19:14;12.00;;;10.73;;
55009;SDS011;40903;51.638;7.528;2022-08-01T03:21:43;10.87;;;9.77;;
55009;SDS011;40903;51.638;7.528;2022-08-01T03:24:09;12.00;;;10.07;;
55009;SDS011;40903;51.638;7.528;2022-08-01T03:26:36;15.20;;;11.70;;
55009;SDS011;40903;51.638;7.528;2022-08-01T03:29:06;11.47;;;10.37;;
55009;SDS011;40903;51.638;7.528;2022-08-01T03:31:37;11.63;;;10.43;;
55009;SDS011;40903;51.638;7.528;2022-08-01T03:34:03;13.13;;;10.97;;
55009;SDS011;40903;51.638;7.528;2022-08-01T03:36:30;11.50;;;10.30;;
55009;SDS011;40903;51.638;7.528;2022-08-01T03:39:00;11.30;;;10.13;;
55009;SDS011;40903;51.638;7.528;2022-08-01T03:41:28;11.20;;;10.10;;
55009;SDS011;40903;51.638;7.528;2022-08-01T03:44:03;13.60;;;10.20;;
55009;SDS011;40903;51.638;7.528;2022-08-01T03:46:36;13.40;;;10.97;;
55009;SDS011;40903;51.638;7.528;2022-08-01T03:49:08;13.93;;;11.13;;
55009;SDS011;40903;51.638;7.528;2022-08-01T03:51:39;13.40;;;12.00;;
55009;SDS011;40903;51.638;7.528;2022-08-01T03:54:05;12.27;;;10.73;;
55009;SDS011;40903;51.638;7.528;2022-08-01T03:56:33;14.03;;;11.53;;
55009;SDS011;40903;51.638;7.528;2022-08-01T03:58:59;14.60;;;11.33;;
55009;SDS011;40903;51.638;7.528;2022-08-01T04:01:28;13.77;;;11.87;;
55009;SDS011;40903;51.638;7.528;2022-08-01T04:03:56;11.70;;;9.97;;
55009;SDS011;40903;51.638;7.528;2022-08-01T04:06:23;13.77;;;10.30;;
55009;SDS011;40903;51.638;7.528;2022-08-01T04:08:48;12.33;;;10.93;;
55009;SDS011;40903;51.638;7.528;2022-08-01T04:11:20;13.13;;;10.40;;
55009;SDS011;40903;51.638;7.528;2022-08-01T04:13:46;12.00;;;10.70;;
55009;SDS011;40903;51.638;7.528;2022-08-01T04:16:12;12.50;;;11.10;;
55009;SDS011;40903;51.638;7.528;2022-08-01T04:18:37;13.70;;;10.87;;
55009;SDS011;40903;51.638;7.528;2022-08-01T04:21:02;14.03;;;11.20;;
55009;SDS011;40903;51.638;7.528;2022-08-01T04:23:28;12.97;;;10.13;;
55009;SDS011;40903;51.638;7.528;2022-08-01T04:25:56;12.50;;;9.33;;
55009;SDS011;40903;51.638;7.528;2022-08-01T04:28:24;12.70;;;9.90;;
55009;SDS011;40903;51.638;7.528;2022-08-01T04:30:51;9.70;;;8.73;;
55009;SDS011;40903;51.638;7.528;2022-08-01T04:33:19;11.87;;;9.67;;
55009;SDS011;40903;51.638;7.528;2022-08-01T04:35:45;12.60;;;9.67;;
55009;SDS011;40903;51.638;7.528;2022-08-01T04:38:15;10.37;;;8.77;;
55009;SDS011;40903;51.638;7.528;2022-08-01T04:40:52;8.70;;;7.80;;
55009;SDS011;40903;51.638;7.528;2022-08-01T04:43:18;9.67;;;8.67;;
55009;SDS011;40903;51.638;7.528;2022-08-01T04:45:43;11.27;;;8.43;;
55009;SDS011;40903;51.638;7.528;2022-08-01T04:48:10;12.23;;;9.03;;
55009;SDS011;40903;51.638;7.528;2022-08-01T04:50:36;9.00;;;7.80;;
55009;SDS011;40903;51.638;7.528;2022-08-01T04:53:02;9.27;;;7.83;;
55009;SDS011;40903;51.638;7.528;2022-08-01T04:55:28;8.53;;;7.63;;
55009;SDS011;40903;51.638;7.528;2022-08-01T04:57:53;9.80;;;8.50;;
55009;SDS011;40903;51.638;7.528;2022-08-01T05:00:18;11.77;;;9.10;;
55009;SDS011;40903;51.638;7.528;2022-08-01T05:02:44;8.80;;;8.00;;
55009;SDS011;40903;51.638;7.528;2022-08-01T05:05:10;9.13;;;8.23;;
55009;SDS011;40903;51.638;7.528;2022-08-01T05:07:35;10.20;;;8.27;;
55009;SDS011;40903;51.638;7.528;2022-08-01T05:10:01;9.30;;;7.50;;
55009;SDS011;40903;51.638;7.528;2022-08-01T05:12:27;9.53;;;8.23;;
55009;SDS011;40903;51.638;7.528;2022-08-01T05:14:52;10.40;;;9.33;;
55009;SDS011;40903;51.638;7.528;2022-08-01T05:17:18;10.80;;;7.93;;
55009;SDS011;40903;51.638;7.528;2022-08-01T05:19:43;11.13;;;8.87;;
55009;SDS011;40903;51.638;7.528;2022-08-01T05:22:09;10.10;;;8.50;;
55009;SDS011;40903;51.638;7.528;2022-08-01T05:24:35;9.83;;;7.60;;
55009;SDS011;40903;51.638;7.528;2022-08-01T05:27:03;10.20;;;9.10;;
55009;SDS011;40903;51.638;7.528;2022-08-01T05:29:29;11.23;;;9.30;;
55009;SDS011;40903;51.638;7.528;2022-08-01T05:31:55;10.87;;;9.13;;
55009;SDS011;40903;51.638;7.528;2022-08-01T05:34:21;10.20;;;8.67;;
55009;SDS011;40903;51.638;7.528;2022-08-01T05:36:47;12.27;;;8.73;;
55009;SDS011;40903;51.638;7.528;2022-08-01T05:39:13;10.13;;;8.60;;
55009;SDS011;40903;51.638;7.528;2022-08-01T05:41:38;10.87;;;8.87;;
55009;SDS011;40903;51.638;7.528;2022-08-01T05:44:04;12.03;;;8.77;;
55009;SDS011;40903;51.638;7.528;2022-08-01T05:46:30;11.03;;;8.73;;
55009;SDS011;40903;51.638;7.528;2022-08-01T05:48:56;9.03;;;8.13;;
55009;SDS011;40903;51.638;7.528;2022-08-01T05:51:28;10.00;;;8.60;;
55009;SDS011;40903;51.638;7.528;2022-08-01T05:53:54;10.50;;;9.40;;
55009;SDS011;40903;51.638;7.528;2022-08-01T05:56:20;9.43;;;8.40;;
55009;SDS011;40903;51.638;7.528;2022-08-01T05:58:46;9.17;;;8.17;;
55009;SDS011;40903;51.638;7.528;2022-08-01T06:01:12;9.43;;;7.67;;
55009;SDS011;40903;51.638;7.528;2022-08-01T06:03:37;8.67;;;7.27;;
55009;SDS011;40903;51.638;7.528;2022-08-01T06:06:03;9.00;;;7.60;;
55009;SDS011;40903;51.638;7.528;2022-08-01T06:08:29;8.43;;;6.57;;
55009;SDS011;40903;51.638;7.528;2022-08-01T06:10:54;8.57;;;6.97;;
55009;SDS011;40903;51.638;7.528;2022-08-01T06:13:20;7.20;;;6.03;;
55009;SDS011;40903;51.638;7.528;2022-08-01T06:15:46;8.97;;;7.43;;
55009;SDS011;40903;51.638;7.528;2022-08-01T06:18:11;8.23;;;6.00;;
55009;SDS011;40903;51.638;7.528;2022-08-01T06:20:37;6.80;;;6.03;;
55009;SDS011;40903;51.638;7.528;2022-08-01T06:23:03;9.30;;;6.33;;
55009;SDS011;40903;51.638;7.528;2022-08-01T06:25:28;7.77;;;6.93;;
55009;SDS011;40903;51.638;7.528;2022-08-01T06:27:53;6.77;;;6.17;;
55009;SDS011;40903;51.638;7.528;2022-08-01T06:30:19;10.93;;;6.90;;
55009;SDS011;40903;51.638;7.528;2022-08-01T06:32:44;8.57;;;6.63;;
55009;SDS011;40903;51.638;7.528;2022-08-01T06:35:10;6.73;;;6.07;;
55009;SDS011;40903;51.638;7.528;2022-08-01T06:37:35;6.83;;;6.17;;
55009;SDS011;40903;51.638;7.528;2022-08-01T06:40:02;9.53;;;6.87;;
55009;SDS011;40903;51.638;7.528;2022-08-01T06:42:28;6.63;;;5.87;;
55009;SDS011;40903;51.638;7.528;2022-08-01T06:44:56;7.60;;;6.67;;
55009;SDS011;40903;51.638;7.528;2022-08-01T06:47:22;6.83;;;6.13;;
55009;SDS011;40903;51.638;7.528;2022-08-01T06:49:47;7.97;;;7.03;;
55009;SDS011;40903;51.638;7.528;2022-08-01T06:52:13;6.60;;;6.00;;
55009;SDS011;40903;51.638;7.528;2022-08-01T06:54:38;8.13;;;6.23;;
55009;SDS011;40903;51.638;7.528;2022-08-01T06:57:06;6.80;;;6.13;;
55009;SDS011;40903;51.638;7.528;2022-08-01T06:59:31;6.57;;;5.70;;
55009;SDS011;40903;51.638;7.528;2022-08-01T07:01:57;6.47;;;5.87;;
55009;SDS011;40903;51.638;7.528;2022-08-01T07:04:22;7.57;;;6.63;;
55009;SDS011;40903;51.638;7.528;2022-08-01T07:06:48;7.33;;;6.63;;
55009;SDS011;40903;51.638;7.528;2022-08-01T07:09:13;8.23;;;6.97;;
55009;SDS011;40903;51.638;7.528;2022-08-01T07:11:38;10.57;;;9.00;;
55009;SDS011;40903;51.638;7.528;2022-08-01T07:14:04;9.97;;;8.97;;
55009;SDS011;40903;51.638;7.528;2022-08-01T07:16:29;10.50;;;9.40;;
55009;SDS011;40903;51.638;7.528;2022-08-01T07:18:54;10.53;;;9.40;;
55009;SDS011;40903;51.638;7.528;2022-08-01T07:21:19;10.60;;;9.47;;
55009;SDS011;40903;51.638;7.528;2022-08-01T07:23:45;12.77;;;10.17;;
55009;SDS011;40903;51.638;7.528;2022-08-01T07:26:10;10.13;;;9.03;;
55009;SDS011;40903;51.638;7.528;2022-08-01T07:28:35;8.43;;;7.70;;
55009;SDS011;40903;51.638;7.528;2022-08-01T07:31:01;7.70;;;6.90;;
55009;SDS011;40903;51.638;7.528;2022-08-01T07:33:26;8.23;;;6.50;;
55009;SDS011;40903;51.638;7.528;2022-08-01T07:35:51;7.70;;;6.90;;
55009;SDS011;40903;51.638;7.528;2022-08-01T07:38:17;7.90;;;7.20;;
55009;SDS011;40903;51.638;7.528;2022-08-01T07:40:43;8.30;;;7.60;;
55009;SDS011;40903;51.638;7.528;2022-08-01T07:43:09;7.90;;;7.20;;
55009;SDS011;40903;51.638;7.528;2022-08-01T07:45:34;7.73;;;6.90;;
55009;SDS011;40903;51.638;7.528;2022-08-01T07:48:03;6.20;;;5.40;;
55009;SDS011;40903;51.638;7.528;2022-08-01T07:50:29;5.77;;;5.27;;
55009;SDS011;40903;51.638;7.528;2022-08-01T07:52:55;5.07;;;4.57;;
55009;SDS011;40903;51.638;7.528;2022-08-01T07:55:21;4.63;;;4.10;;
55009;SDS011;40903;51.638;7.528;2022-08-01T07:57:46;4.40;;;4.00;;
55009;SDS011;40903;51.638;7.528;2022-08-01T08:00:11;5.57;;;4.17;;
55009;SDS011;40903;51.638;7.528;2022-08-01T08:02:38;4.27;;;3.87;;
55009;SDS011;40903;51.638;7.528;2022-08-01T08:05:03;4.23;;;3.83;;
55009;SDS011;40903;51.638;7.528;2022-08-01T08:07:29;3.63;;;3.33;;
55009;SDS011;40903;51.638;7.528;2022-08-01T08:09:55;5.10;;;3.60;;
55009;SDS011;40903;51.638;7.528;2022-08-01T08:12:20;5.17;;;4.27;;
55009;SDS011;40903;51.638;7.528;2022-08-01T08:14:46;4.50;;;4.10;;
55009;SDS011;40903;51.638;7.528;2022-08-01T08:17:11;6.20;;;5.27;;
55009;SDS011;40903;51.638;7.528;2022-08-01T08:19:36;5.10;;;4.60;;
55009;SDS011;40903;51.638;7.528;2022-08-01T08:22:04;7.20;;;5.10;;
55009;SDS011;40903;51.638;7.528;2022-08-01T08:24:30;5.23;;;4.43;;
55009;SDS011;40903;51.638;7.528;2022-08-01T08:26:56;5.43;;;4.40;;
55009;SDS011;40903;51.638;7.528;2022-08-01T08:29:23;4.17;;;3.80;;
55009;SDS011;40903;51.638;7.528;2022-08-01T08:31:49;4.90;;;4.37;;
55009;SDS011;40903;51.638;7.528;2022-08-01T08:34:15;5.23;;;4.87;;
55009;SDS011;40903;51.638;7.528;2022-08-01T08:36:41;5.90;;;5.50;;
55009;SDS011;40903;51.638;7.528;2022-08-01T08:39:07;6.27;;;5.77;;
55009;SDS011;40903;51.638;7.528;2022-08-01T08:41:33;5.57;;;5.17;;
55009;SDS011;40903;51.638;7.528;2022-08-01T08:44:00;6.23;;;5.73;;
55009;SDS011;40903;51.638;7.528;2022-08-01T08:46:29;6.33;;;5.83;;
55009;SDS011;40903;51.638;7.528;2022-08-01T08:48:57;5.30;;;4.90;;
55009;SDS011;40903;51.638;7.528;2022-08-01T08:51:25;4.50;;;4.10;;
55009;SDS011;40903;51.638;7.528;2022-08-01T08:53:53;4.60;;;4.20;;
55009;SDS011;40903;51.638;7.528;2022-08-01T08:56:20;5.03;;;4.70;;
55009;SDS011;40903;51.638;7.528;2022-08-01T08:58:48;6.10;;;5.50;;
55009;SDS011;40903;51.638;7.528;2022-08-01T09:01:13;5.03;;;4.37;;
55009;SDS011;40903;51.638;7.528;2022-08-01T09:03:39;3.93;;;3.63;;
55009;SDS011;40903;51.638;7.528;2022-08-01T09:06:05;2.37;;;2.27;;
55009;SDS011;40903;51.638;7.528;2022-08-01T09:08:30;3.00;;;2.80;;
55009;SDS011;40903;51.638;7.528;2022-08-01T09:10:57;2.73;;;2.53;;
55009;SDS011;40903;51.638;7.528;2022-08-01T09:13:22;3.30;;;2.57;;
55009;SDS011;40903;51.638;7.528;2022-08-01T09:15:50;2.80;;;2.63;;
55009;SDS011;40903;51.638;7.528;2022-08-01T09:21:12;2.20;;;2.10;;
55009;SDS011;40903;51.638;7.528;2022-08-01T09:23:44;2.37;;;2.17;;
55009;SDS011;40903;51.638;7.528;2022-08-01T09:26:12;2.20;;;2.00;;
55009;SDS011;40903;51.638;7.528;2022-08-01T09:28:39;2.50;;;1.83;;
55009;SDS011;40903;51.638;7.528;2022-08-01T09:31:06;1.60;;;1.50;;
55009;SDS011;40903;51.638;7.528;2022-08-01T09:36:22;3.30;;;2.20;;
55009;SDS011;40903;51.638;7.528;2022-08-01T09:38:49;2.23;;;2.03;;
55009;SDS011;40903;51.638;7.528;2022-08-01T09:41:16;2.27;;;1.80;;
55009;SDS011;40903;51.638;7.528;2022-08-01T09:43:47;1.60;;;1.50;;
55009;SDS011;40903;51.638;7.528;2022-08-01T09:46:15;1.47;;;1.37;;
55009;SDS011;40903;51.638;7.528;2022-08-01T09:49:00;2.63;;;1.77;;
55009;SDS011;40903;51.638;7.528;2022-08-01T09:51:28;2.00;;;1.20;;
55009;SDS011;40903;51.638;7.528;2022-08-01T09:53:55;1.97;;;1.20;;
55009;SDS011;40903;51.638;7.528;2022-08-01T09:56:21;1.10;;;1.00;;
55009;SDS011;40903;51.638;7.528;2022-08-01T09:59:05;1.63;;;1.10;;
55009;SDS011;40903;51.638;7.528;2022-08-01T10:01:47;2.60;;;1.40;;
55009;SDS011;40903;51.638;7.528;2022-08-01T10:04:18;3.50;;;1.97;;
55009;SDS011;40903;51.638;7.528;2022-08-01T10:06:46;2.20;;;1.00;;
55009;SDS011;40903;51.638;7.528;2022-08-01T10:09:29;1.13;;;0.97;;
55009;SDS011;40903;51.638;7.528;2022-08-01T10:11:56;1.10;;;1.00;;
55009;SDS011;40903;51.638;7.528;2022-08-01T10:14:24;0.80;;;0.80;;
55009;SDS011;40903;51.638;7.528;2022-08-01T10:16:51;1.80;;;0.97;;
55009;SDS011;40903;51.638;7.528;2022-08-01T10:19:18;1.03;;;0.70;;
55009;SDS011;40903;51.638;7.528;2022-08-01T10:21:47;0.73;;;0.73;;
55009;SDS011;40903;51.638;7.528;2022-08-01T10:24:15;0.70;;;0.70;;
55009;SDS011;40903;51.638;7.528;2022-08-01T10:26:42;0.60;;;0.60;;
55009;SDS011;40903;51.638;7.528;2022-08-01T10:29:09;0.60;;;0.57;;
55009;SDS011;40903;51.638;7.528;2022-08-01T10:31:34;0.63;;;0.63;;
55009;SDS011;40903;51.638;7.528;2022-08-01T10:34:01;1.93;;;0.53;;
55009;SDS011;40903;51.638;7.528;2022-08-01T10:36:26;0.70;;;0.70;;
55009;SDS011;40903;51.638;7.528;2022-08-01T10:38:53;0.60;;;0.60;;
55009;SDS011;40903;51.638;7.528;2022-08-01T10:41:20;0.60;;;0.60;;
55009;SDS011;40903;51.638;7.528;2022-08-01T10:43:46;0.60;;;0.60;;
55009;SDS011;40903;51.638;7.528;2022-08-01T10:46:11;1.13;;;0.70;;
55009;SDS011;40903;51.638;7.528;2022-08-01T10:49:20;0.80;;;0.80;;
55009;SDS011;40903;51.638;7.528;2022-08-01T10:51:28;0.60;;;0.60;;
55009;SDS011;40903;51.638;7.528;2022-08-01T10:53:54;0.60;;;0.60;;
55009;SDS011;40903;51.638;7.528;2022-08-01T10:56:19;1.07;;;0.87;;
55009;SDS011;40903;51.638;7.528;2022-08-01T10:58:47;1.60;;;0.90;;
55009;SDS011;40903;51.638;7.528;2022-08-01T11:01:15;1.00;;;0.70;;
55009;SDS011;40903;51.638;7.528;2022-08-01T11:08:57;1.07;;;0.70;;
55009;SDS011;40903;51.638;7.528;2022-08-01T11:11:25;1.27;;;0.50;;
55009;SDS011;40903;51.638;7.528;2022-08-01T11:16:38;0.50;;;0.50;;
55009;SDS011;40903;51.638;7.528;2022-08-01T11:19:05;0.30;;;0.30;;
55009;SDS011;40903;51.638;7.528;2022-08-01T11:24:41;0.53;;;0.53;;
55009;SDS011;40903;51.638;7.528;2022-08-01T11:32:45;0.70;;;0.70;;
55009;SDS011;40903;51.638;7.528;2022-08-01T11:35:18;0.83;;;0.70;;
55009;SDS011;40903;51.638;7.528;2022-08-01T11:37:48;0.87;;;0.87;;
55009;SDS011;40903;51.638;7.528;2022-08-01T11:42:40;0.77;;;0.70;;
55009;SDS011;40903;51.638;7.528;2022-08-01T11:45:06;0.80;;;0.80;;
55009;SDS011;40903;51.638;7.528;2022-08-01T11:50:37;0.83;;;0.83;;
55009;SDS011;40903;51.638;7.528;2022-08-01T11:53:05;0.90;;;0.87;;
55009;SDS011;40903;51.638;7.528;2022-08-01T11:55:32;1.10;;;1.00;;
55009;SDS011;40903;51.638;7.528;2022-08-01T11:58:03;0.77;;;0.70;;
55009;SDS011;40903;51.638;7.528;2022-08-01T12:00:30;0.80;;;0.80;;
55009;SDS011;40903;51.638;7.528;2022-08-01T12:03:00;0.80;;;0.80;;
55009;SDS011;40903;51.638;7.528;2022-08-01T12:05:27;1.10;;;0.80;;
55009;SDS011;40903;51.638;7.528;2022-08-01T12:07:55;0.60;;;0.60;;
55009;SDS011;40903;51.638;7.528;2022-08-01T12:10:23;0.80;;;0.80;;
55009;SDS011;40903;51.638;7.528;2022-08-01T12:12:55;0.77;;;0.73;;
55009;SDS011;40903;51.638;7.528;2022-08-01T12:15:24;0.90;;;0.80;;
55009;SDS011;40903;51.638;7.528;2022-08-01T12:17:56;0.80;;;0.80;;
55009;SDS011;40903;51.638;7.528;2022-08-01T12:20:22;1.17;;;0.90;;
55009;SDS011;40903;51.638;7.528;2022-08-01T12:22:55;1.53;;;0.97;;
55009;SDS011;40903;51.638;7.528;2022-08-01T12:25:21;1.27;;;0.60;;
55009;SDS011;40903;51.638;7.528;2022-08-01T12:27:47;1.47;;;0.77;;
55009;SDS011;40903;51.638;7.528;2022-08-01T12:30:15;1.07;;;0.90;;
55009;SDS011;40903;51.638;7.528;2022-08-01T12:32:42;2.70;;;1.23;;
55009;SDS011;40903;51.638;7.528;2022-08-01T12:35:13;2.20;;;0.93;;
55009;SDS011;40903;51.638;7.528;2022-08-01T12:42:47;1.90;;;1.10;;
55009;SDS011;40903;51.638;7.528;2022-08-01T12:45:15;1.77;;;0.90;;
55009;SDS011;40903;51.638;7.528;2022-08-01T12:47:43;0.90;;;0.90;;
55009;SDS011;40903;51.638;7.528;2022-08-01T12:50:12;1.17;;;0.80;;
55009;SDS011;40903;51.638;7.528;2022-08-01T12:52:40;1.40;;;1.27;;
55009;SDS011;40903;51.638;7.528;2022-08-01T12:57:36;1.30;;;1.20;;
55009;SDS011;40903;51.638;7.528;2022-08-01T13:02:32;3.80;;;1.40;;
55009;SDS011;40903;51.638;7.528;2022-08-01T13:04:58;3.27;;;1.40;;
55009;SDS011;40903;51.638;7.528;2022-08-01T13:07:34;1.97;;;1.50;;
55009;SDS011;40903;51.638;7.528;2022-08-01T13:10:00;1.67;;;1.57;;
55009;SDS011;40903;51.638;7.528;2022-08-01T13:12:26;1.33;;;1.23;;
55009;SDS011;40903;51.638;7.528;2022-08-01T13:14:51;1.40;;;1.30;;
55009;SDS011;40903;51.638;7.528;2022-08-01T13:17:33;1.53;;;1.43;;
55009;SDS011;40903;51.638;7.528;2022-08-01T13:20:04;1.93;;;1.70;;
55009;SDS011;40903;51.638;7.528;2022-08-01T13:22:34;1.80;;;1.70;;
55009;SDS011;40903;51.638;7.528;2022-08-01T13:25:10;1.83;;;1.30;;
55009;SDS011;40903;51.638;7.528;2022-08-01T13:27:39;2.57;;;1.70;;
55009;SDS011;40903;51.638;7.528;2022-08-01T13:32:37;2.53;;;1.80;;
55009;SDS011;40903;51.638;7.528;2022-08-01T13:35:04;1.93;;;1.73;;
55009;SDS011;40903;51.638;7.528;2022-08-01T13:37:32;1.77;;;1.67;;
55009;SDS011;40903;51.638;7.528;2022-08-01T13:39:58;3.33;;;1.83;;
55009;SDS011;40903;51.638;7.528;2022-08-01T13:42:23;1.30;;;1.20;;
55009;SDS011;40903;51.638;7.528;2022-08-01T13:44:49;1.13;;;1.00;;
55009;SDS011;40903;51.638;7.528;2022-08-01T13:47:14;1.73;;;1.30;;
55009;SDS011;40903;51.638;7.528;2022-08-01T13:49:40;2.40;;;1.30;;
55009;SDS011;40903;51.638;7.528;2022-08-01T13:52:05;1.27;;;1.17;;
55009;SDS011;40903;51.638;7.528;2022-08-01T13:54:31;2.57;;;1.33;;
55009;SDS011;40903;51.638;7.528;2022-08-01T13:56:57;2.17;;;1.60;;
55009;SDS011;40903;51.638;7.528;2022-08-01T13:59:23;3.00;;;1.40;;
55009;SDS011;40903;51.638;7.528;2022-08-01T14:01:49;2.00;;;1.80;;
55009;SDS011;40903;51.638;7.528;2022-08-01T14:04:14;1.73;;;1.60;;
55009;SDS011;40903;51.638;7.528;2022-08-01T14:06:40;3.20;;;1.60;;
55009;SDS011;40903;51.638;7.528;2022-08-01T14:09:06;1.73;;;1.30;;
55009;SDS011;40903;51.638;7.528;2022-08-01T14:11:32;1.30;;;1.20;;
55009;SDS011;40903;51.638;7.528;2022-08-01T14:13:58;1.30;;;1.20;;
55009;SDS011;40903;51.638;7.528;2022-08-01T14:16:23;1.30;;;1.00;;
55009;SDS011;40903;51.638;7.528;2022-08-01T14:18:49;1.17;;;1.00;;
55009;SDS011;40903;51.638;7.528;2022-08-01T14:21:15;0.97;;;0.97;;
55009;SDS011;40903;51.638;7.528;2022-08-01T14:23:41;1.40;;;1.27;;
55009;SDS011;40903;51.638;7.528;2022-08-01T14:26:07;1.30;;;1.20;;
55009;SDS011;40903;51.638;7.528;2022-08-01T14:28:33;2.27;;;1.30;;
55009;SDS011;40903;51.638;7.528;2022-08-01T14:30:59;3.63;;;1.37;;
55009;SDS011;40903;51.638;7.528;2022-08-01T14:33:24;2.27;;;1.40;;
55009;SDS011;40903;51.638;7.528;2022-08-01T14:35:51;1.73;;;1.43;;
55009;SDS011;40903;51.638;7.528;2022-08-01T14:38:16;1.70;;;1.40;;
55009;SDS011;40903;51.638;7.528;2022-08-01T14:40:43;2.27;;;1.50;;
55009;SDS011;40903;51.638;7.528;2022-08-01T14:43:11;2.00;;;1.37;;
55009;SDS011;40903;51.638;7.528;2022-08-01T14:45:37;2.27;;;1.40;;
55009;SDS011;40903;51.638;7.528;2022-08-01T14:48:03;1.80;;;1.27;;
55009;SDS011;40903;51.638;7.528;2022-08-01T14:50:29;2.57;;;1.30;;
55009;SDS011;40903;51.638;7.528;2022-08-01T14:52:55;4.00;;;1.40;;
55009;SDS011;40903;51.638;7.528;2022-08-01T14:55:21;1.60;;;1.23;;
55009;SDS011;40903;51.638;7.528;2022-08-01T14:57:49;1.63;;;1.20;;
55009;SDS011;40903;51.638;7.528;2022-08-01T15:00:16;2.83;;;1.33;;
55009;SDS011;40903;51.638;7.528;2022-08-01T15:02:42;2.00;;;1.33;;
55009;SDS011;40903;51.638;7.528;2022-08-01T15:05:08;2.13;;;1.40;;
55009;SDS011;40903;51.638;7.528;2022-08-01T15:07:34;2.80;;;1.50;;
55009;SDS011;40903;51.638;7.528;2022-08-01T15:10:01;2.83;;;1.53;;
55009;SDS011;40903;51.638;7.528;2022-08-01T15:12:27;3.47;;;1.47;;
55009;SDS011;40903;51.638;7.528;2022-08-01T15:14:52;2.23;;;1.50;;
55009;SDS011;40903;51.638;7.528;2022-08-01T15:17:22;2.93;;;1.93;;
55009;SDS011;40903;51.638;7.528;2022-08-01T15:19:50;4.23;;;1.40;;